Time;durP1;ratioP1;P1;durP2;ratioP2;P2;SDS_P1;SDS_P2;PMS_P1;PMS_P2;Temp;Humidity;BMP_temperature;BMP_pressure;BME280_temperature;BME280_humidity;BME280_pressure;Samples;Min_cycle;Max_cycle;Signal;HPM_P1;HPM_P2
2022/07/20 00:07:51;;;;;;;3.53;1.50;;;;;;;21.02;49.23;100916.56;18358747;32;20166;-56
2022/07/20 00:17:55;;;;;;;4.72;1.80;;;;;;;20.94;49.47;100926.59;18356350;32;20097;-56
2022/07/20 00:27:59;;;;;;;4.03;1.70;;;;;;;20.65;50.94;100921.37;18356900;32;20449;-56
2022/07/20 00:38:04;;;;;;;3.72;1.42;;;;;;;20.58;52.07;100916.38;18356422;32;20445;-56
2022/07/20 00:48:07;;;;;;;2.25;1.60;;;;;;;20.43;52.34;100921.28;18356192;32;20119;-56
2022/07/20 00:58:13;;;;;;;7.78;2.03;;;;;;;20.21;52.55;100922.03;18408287;31;20108;-56
2022/07/20 01:08:16;;;;;;;3.83;1.80;;;;;;;20.06;53.89;100933.16;18354635;32;20090;-56
2022/07/20 01:18:21;;;;;;;3.12;1.85;;;;;;;20.02;54.09;100921.81;18354570;32;20438;-56
2022/07/20 01:28:26;;;;;;;4.37;1.67;;;;;;;19.93;54.67;100925.63;18357276;32;20362;-56
2022/07/20 01:38:29;;;;;;;6.20;2.22;;;;;;;19.93;54.68;100927.41;18363483;32;20104;-56
2022/07/20 01:48:34;;;;;;;5.45;1.95;;;;;;;19.69;55.95;100938.72;18364148;32;20105;-56
2022/07/20 01:58:37;;;;;;;3.75;1.90;;;;;;;19.50;56.27;100934.94;18362802;32;20138;-56
2022/07/20 02:08:42;;;;;;;4.20;1.90;;;;;;;19.32;56.58;100941.63;18362148;32;20436;-56
2022/07/20 02:18:47;;;;;;;7.50;2.10;;;;;;;19.20;56.89;100937.56;18361987;32;20137;-56
2022/07/20 02:28:52;;;;;;;6.30;2.10;;;;;;;19.23;56.68;100933.06;18362830;32;20175;-56
2022/07/20 02:38:56;;;;;;;8.23;1.90;;;;;;;19.16;56.71;100934.19;18360426;32;20113;-56
2022/07/20 02:49:01;;;;;;;3.92;2.17;;;;;;;19.32;55.94;100936.34;18360503;32;20078;-56
2022/07/20 02:59:05;;;;;;;3.62;1.87;;;;;;;19.16;57.01;100941.25;18360439;32;20093;-56
2022/07/20 03:09:10;;;;;;;4.47;1.92;;;;;;;18.88;58.03;100953.47;18359924;32;20182;-56
2022/07/20 03:19:13;;;;;;;7.25;1.90;;;;;;;18.89;57.69;100959.59;18360998;32;20113;-56
2022/07/20 03:29:18;;;;;;;5.50;2.10;;;;;;;18.83;58.44;100958.00;18360241;32;20093;-56
2022/07/20 03:39:22;;;;;;;5.57;2.55;;;;;;;18.86;58.28;100968.50;18358665;32;20093;-56
2022/07/20 03:49:26;;;;;;;4.78;2.30;;;;;;;18.84;58.62;100994.13;18358402;32;20449;-56
2022/07/20 03:59:30;;;;;;;4.93;1.95;;;;;;;18.86;58.54;100992.28;18355785;31;69592;-56
2022/07/20 04:09:47;;;;;;;4.28;1.90;;;;;;;19.18;58.73;100987.03;18357538;32;20125;-56
2022/07/20 04:19:51;;;;;;;5.43;2.17;;;;;;;20.10;56.08;100993.94;18357379;32;20097;-56
2022/07/20 04:29:56;;;;;;;5.75;2.17;;;;;;;21.28;52.88;100990.81;18356440;32;20421;-56
2022/07/20 04:39:59;;;;;;;4.53;1.87;;;;;;;21.56;52.34;100993.25;18356420;32;20498;-56
2022/07/20 04:50:05;;;;;;;4.20;2.00;;;;;;;22.09;50.56;100991.22;18356006;32;20117;-56
2022/07/20 05:00:10;;;;;;;3.97;1.60;;;;;;;22.91;49.31;100986.88;18355909;32;20107;-56
2022/07/20 05:10:16;;;;;;;2.97;1.50;;;;;;;23.25;46.16;100992.47;18354998;32;20137;-56
2022/07/20 05:20:19;;;;;;;4.57;1.55;;;;;;;23.81;45.76;100992.56;18354667;32;20134;-56
2022/07/20 05:30:24;;;;;;;5.20;1.90;;;;;;;24.28;44.29;100996.50;18354056;32;20149;-56
2022/07/20 05:40:27;;;;;;;2.62;1.37;;;;;;;24.63;43.52;101008.97;18354529;32;20103;-56
2022/07/20 05:50:31;;;;;;;5.75;1.67;;;;;;;25.24;41.88;101004.00;18353133;32;20354;-55
2022/07/20 06:00:35;;;;;;;4.20;1.30;;;;;;;26.00;41.25;100997.13;18352550;32;20112;-55
2022/07/20 06:10:40;;;;;;;3.72;1.30;;;;;;;26.78;38.15;101003.25;18350173;32;20097;-55
2022/07/20 06:20:43;;;;;;;4.10;1.40;;;;;;;27.36;36.82;101002.44;18360172;32;20129;-56
2022/07/20 06:30:48;;;;;;;3.03;1.23;;;;;;;27.97;35.98;100999.41;18351002;32;20090;-55
2022/07/20 06:40:51;;;;;;;2.47;1.12;;;;;;;28.58;33.67;101001.62;18360677;31;20102;-55
2022/07/20 06:50:56;;;;;;;3.30;1.30;;;;;;;29.21;32.09;100993.66;18361887;32;20089;-55
2022/07/20 07:00:59;;;;;;;2.70;1.20;;;;;;;29.28;30.03;100993.22;18360546;32;20350;-55
2022/07/20 07:11:04;;;;;;;5.70;1.50;;;;;;;28.89;31.51;100988.75;18357988;31;20111;-55
2022/07/20 07:21:08;;;;;;;3.92;1.30;;;;;;;29.26;29.22;100981.72;18353627;32;20111;-55
2022/07/20 07:31:13;;;;;;;3.17;1.40;;;;;;;30.34;28.48;100980.06;18356072;32;20116;-55
2022/07/20 07:41:16;;;;;;;2.90;1.17;;;;;;;30.17;28.97;100976.88;18358494;31;20179;-56
2022/07/20 07:51:21;;;;;;;2.60;1.33;;;;;;;31.40;26.33;100975.41;18357883;32;20385;-55
2022/07/20 08:01:24;;;;;;;2.05;0.93;;;;;;;31.81;26.03;100960.31;18357939;32;20123;-55
2022/07/20 08:11:29;;;;;;;1.95;1.00;;;;;;;31.36;24.68;100958.59;18357653;31;20111;-55
2022/07/20 08:21:33;;;;;;;2.58;1.20;;;;;;;33.15;23.04;100958.87;18358025;32;20105;-55
2022/07/20 08:31:39;;;;;;;4.05;1.27;;;;;;;32.70;23.31;100949.28;18356723;31;20115;-55
2022/07/20 08:41:42;;;;;;;2.30;1.30;;;;;;;34.30;22.63;100942.97;18355244;31;20155;-55
2022/07/20 08:51:48;;;;;;;3.33;1.58;;;;;;;34.43;21.65;100932.69;18353685;31;20131;-55
2022/07/20 09:01:57;;;;;;;3.65;1.17;;;;;;;34.42;22.11;100930.12;18355648;32;20704;-55
2022/07/20 09:12:02;;;;;;;5.95;1.40;;;;;;;35.21;20.46;100924.38;18407968;31;20112;-56
2022/07/20 09:22:07;;;;;;;2.97;1.20;;;;;;;35.55;21.39;100913.72;18354492;32;20396;-56
2022/07/20 09:32:12;;;;;;;2.08;1.10;;;;;;;35.46;19.77;100900.22;18353834;32;20187;-55
2022/07/20 09:42:16;;;;;;;2.00;1.25;;;;;;;35.95;19.29;100891.63;18353530;32;20459;-55
2022/07/20 09:52:21;;;;;;;2.92;1.12;;;;;;;35.75;18.14;100894.53;18358778;32;20085;-56
2022/07/20 10:02:38;;;;;;;3.08;1.10;;;;;;;36.68;18.18;100875.09;18359915;31;20094;-55
2022/07/20 10:12:43;;;;;;;4.65;1.23;;;;;;;35.74;18.96;100876.53;18362398;31;20194;-55
2022/07/20 10:23:32;;;;;;;1.65;1.10;;;;;;;36.60;17.93;100862.34;18361649;32;20180;-55
2022/07/20 10:33:39;;;;;;;2.78;1.25;;;;;;;36.21;17.48;100850.06;18412919;32;20108;-55
2022/07/20 10:43:42;;;;;;;3.70;1.20;;;;;;;38.09;16.28;100837.13;18424333;32;20121;-55
2022/07/20 10:53:47;;;;;;;1.35;0.98;;;;;;;36.85;16.79;100838.78;18424135;32;20214;-55
2022/07/20 11:03:50;;;;;;;1.98;1.30;;;;;;;37.42;15.72;100818.12;18405946;32;20115;-55
2022/07/20 11:13:55;;;;;;;2.00;0.98;;;;;;;38.84;14.08;100799.47;18358690;32;20158;-55
2022/07/20 11:23:59;;;;;;;1.95;1.10;;;;;;;38.21;15.27;100792.13;18358850;32;20137;-55
2022/07/20 11:34:04;;;;;;;3.25;1.17;;;;;;;38.22;15.08;100782.91;18357282;32;20124;-55
2022/07/20 11:44:09;;;;;;;3.55;1.62;;;;;;;37.72;15.54;100779.50;18358501;31;20385;-55
2022/07/20 11:54:21;;;;;;;2.90;1.20;;;;;;;36.85;16.53;100776.22;18358332;32;20096;-55
2022/07/20 12:04:24;;;;;;;3.12;1.08;;;;;;;38.25;15.28;100760.78;18410576;31;20158;-55
2022/07/20 12:14:31;;;;;;;3.03;1.30;;;;;;;38.27;14.63;100757.84;18357564;32;20089;-55
2022/07/20 12:24:56;;;;;;;3.60;1.10;;;;;;;39.95;14.14;100743.56;18358336;32;20112;-55
2022/07/20 12:35:02;;;;;;;4.00;1.30;;;;;;;40.30;12.20;100738.31;18356618;32;20115;-55
2022/07/20 12:45:07;;;;;;;2.97;1.20;;;;;;;37.98;14.22;100727.47;18355382;32;20191;-55
2022/07/20 12:55:12;;;;;;;2.65;1.10;;;;;;;39.20;13.61;100724.38;18355435;32;20120;-55
2022/07/20 13:05:15;;;;;;;1.80;1.00;;;;;;;40.07;12.98;100711.97;18407293;31;20151;-55
2022/07/20 13:15:20;;;;;;;9.48;2.22;;;;;;;40.89;12.42;100697.31;18355025;32;20176;-55
2022/07/20 13:25:42;;;;;;;1.65;1.00;;;;;;;40.01;12.62;100684.56;18409752;31;20097;-55
2022/07/20 13:35:47;;;;;;;2.47;1.00;;;;;;;40.50;13.08;100683.88;18363321;32;20420;-55
2022/07/20 13:45:50;;;;;;;4.78;1.10;;;;;;;39.99;12.83;100681.19;18361606;32;20194;-55
2022/07/20 13:55:55;;;;;;;2.62;1.10;;;;;;;40.15;12.45;100670.03;18361537;32;20112;-55
2022/07/20 14:05:58;;;;;;;2.00;1.27;;;;;;;39.57;13.14;100651.63;18361949;32;20093;-56
2022/07/20 14:16:03;;;;;;;1.98;1.10;;;;;;;38.62;14.31;100649.28;18362153;32;20142;-55
2022/07/20 14:26:07;;;;;;;4.03;1.67;;;;;;;38.08;14.05;100639.25;18415264;31;20097;-56
2022/07/20 14:36:11;;;;;;;3.50;1.35;;;;;;;38.78;14.33;100634.66;18412688;31;20149;-56
2022/07/20 14:46:15;;;;;;;4.50;1.20;;;;;;;38.23;14.21;100628.44;18413626;31;20094;-56
2022/07/20 14:56:20;;;;;;;5.68;1.58;;;;;;;38.70;14.76;100616.50;18360592;32;20097;-56
2022/07/20 15:06:23;;;;;;;2.85;1.20;;;;;;;38.25;14.77;100607.28;18360084;32;20449;-56
2022/07/20 15:16:28;;;;;;;3.95;1.50;;;;;;;37.10;15.20;100587.69;18359409;32;20096;-56
2022/07/20 15:26:32;;;;;;;2.08;1.25;;;;;;;37.38;14.68;100581.81;18410466;31;20106;-56
2022/07/20 15:36:37;;;;;;;20.00;2.40;;;;;;;38.31;14.13;100585.59;18359025;32;20099;-56
2022/07/20 15:46:41;;;;;;;2.90;1.23;;;;;;;37.66;14.78;100578.66;18357132;32;20432;-57
2022/07/20 16:07:06;;;;;;;4.43;1.25;;;;;;;37.16;15.29;100563.34;18351842;32;20666;-56
2022/07/20 16:17:11;;;;;;;5.10;1.48;;;;;;;37.71;15.28;100549.88;18353959;32;20100;-56
2022/07/20 16:27:15;;;;;;;3.70;1.42;;;;;;;37.08;14.67;100554.38;18409448;31;20102;-56
2022/07/20 16:37:20;;;;;;;3.42;1.30;;;;;;;37.29;15.83;100557.34;18355709;31;20105;-56
2022/07/20 16:58:31;;;;;;;3.72;1.23;;;;;;;37.52;15.51;100548.44;18091175;32;20133;-56
2022/07/20 17:08:34;;;;;;;2.30;1.10;;;;;;;37.14;15.82;100546.38;18092183;32;20201;-57
2022/07/20 17:18:38;;;;;;;5.25;1.40;;;;;;;36.85;16.35;100546.91;18092304;32;20467;-56
2022/07/20 17:28:42;;;;;;;4.25;1.37;;;;;;;36.76;17.04;100537.94;18139562;32;20444;-56
2022/07/20 17:38:46;;;;;;;4.22;1.42;;;;;;;36.42;21.07;100539.81;18341630;32;20112;-56
2022/07/20 17:48:50;;;;;;;7.50;1.87;;;;;;;35.72;24.80;100535.66;18284723;31;20090;-56
2022/07/20 17:58:56;;;;;;;6.30;2.92;;;;;;;34.75;26.96;100544.78;18289671;32;20082;-56
2022/07/20 18:08:59;;;;;;;8.63;1.52;;;;;;;34.02;28.63;100532.16;18340482;32;20138;-57
2022/07/20 18:19:04;;;;;;;5.53;1.45;;;;;;;33.22;30.99;100532.69;18347369;31;20127;-57
2022/07/20 18:29:08;;;;;;;8.30;1.60;;;;;;;32.58;31.96;100545.94;18347702;32;20125;-56
2022/07/20 18:39:15;;;;;;;4.57;1.30;;;;;;;31.83;32.50;100547.28;18295531;32;20093;-57
2022/07/20 18:49:18;;;;;;;4.25;1.52;;;;;;;31.06;33.27;100554.88;18347698;32;20110;-57
2022/07/20 18:59:22;;;;;;;8.77;1.50;;;;;;;30.51;32.83;100561.31;18294168;31;20378;-56
2022/07/20 19:09:26;;;;;;;4.65;1.65;;;;;;;29.85;35.01;100566.66;18345806;31;20203;-57
2022/07/20 19:19:30;;;;;;;4.70;2.17;;;;;;;29.35;35.90;100578.59;18290514;31;20849;-56
2022/07/20 19:29:33;;;;;;;5.47;1.80;;;;;;;29.15;36.03;100579.34;18345418;32;20102;-56
2022/07/20 19:39:38;;;;;;;5.07;1.35;;;;;;;28.26;37.46;100588.66;18343685;32;20772;-56
2022/07/20 19:49:41;;;;;;;3.17;1.45;;;;;;;27.99;37.45;100592.41;18353092;31;20145;-57
2022/07/20 19:59:47;;;;;;;3.25;1.65;;;;;;;27.56;38.66;100597.19;18375881;32;20098;-56
2022/07/20 20:09:50;;;;;;;10.20;2.33;;;;;;;27.16;39.13;100616.06;18291359;32;20098;-56
2022/07/20 20:19:55;;;;;;;5.37;2.17;;;;;;;26.73;40.85;100609.09;18285410;32;20101;-58
2022/07/20 20:29:58;;;;;;;5.50;2.25;;;;;;;26.64;42.37;100610.56;18289228;32;20217;-56
2022/07/20 20:40:04;;;;;;;4.55;2.08;;;;;;;26.55;42.80;100613.84;18292283;32;20089;-56
2022/07/20 20:50:11;;;;;;;5.68;2.53;;;;;;;26.36;43.87;100622.25;18286724;32;20445;-55
2022/07/20 21:00:17;;;;;;;4.93;2.10;;;;;;;25.97;43.95;100613.97;18288851;32;20097;-57
2022/07/20 21:10:24;;;;;;;5.63;1.80;;;;;;;25.63;42.57;100625.00;18291097;32;20112;-56
2022/07/20 21:20:29;;;;;;;3.60;1.73;;;;;;;25.54;42.83;100631.78;18287981;32;20152;-56
2022/07/20 21:30:32;;;;;;;2.80;1.75;;;;;;;25.30;43.55;100629.63;18289975;32;20102;-56
2022/07/20 21:40:37;;;;;;;3.78;1.80;;;;;;;24.95;44.54;100643.28;18287075;32;20354;-56
2022/07/20 21:50:40;;;;;;;6.18;2.20;;;;;;;24.69;44.45;100650.97;18297623;32;20109;-56
2022/07/20 22:00:45;;;;;;;3.40;1.92;;;;;;;24.57;45.24;100643.69;18299422;32;20142;-56
2022/07/20 22:10:49;;;;;;;4.85;2.35;;;;;;;24.31;45.68;100643.34;18299340;32;20210;-56
2022/07/20 22:20:53;;;;;;;3.50;1.90;;;;;;;24.22;45.36;100644.72;18298550;32;20421;-56
2022/07/20 22:30:57;;;;;;;8.70;2.70;;;;;;;24.05;45.64;100645.66;18298486;32;20142;-56
2022/07/20 22:41:01;;;;;;;6.07;2.53;;;;;;;23.56;48.20;100655.34;18350336;32;20113;-56
2022/07/20 22:51:05;;;;;;;5.05;1.80;;;;;;;23.57;47.70;100649.06;18297613;32;20098;-56
2022/07/20 23:01:09;;;;;;;3.00;1.67;;;;;;;23.41;47.75;100663.19;18295803;32;20102;-56
2022/07/20 23:11:12;;;;;;;5.68;2.00;;;;;;;23.14;48.51;100655.66;18296597;32;20382;-56
2022/07/20 23:21:17;;;;;;;4.22;2.00;;;;;;;23.01;49.47;100665.19;18296147;32;20158;-56
2022/07/20 23:31:20;;;;;;;5.50;2.17;;;;;;;22.81;50.61;100675.06;18296988;32;20166;-56
2022/07/20 23:41:25;;;;;;;4.53;2.20;;;;;;;22.76;51.04;100676.22;18295424;32;20112;-56
2022/07/20 23:51:28;;;;;;;6.07;2.85;;;;;;;22.82;51.62;100671.44;18295144;32;20120;-56
